Time;durP1;ratioP1;P1;durP2;ratioP2;P2;SDS_P1;SDS_P2;PMS_P1;PMS_P2;Temp;Humidity;BMP_temperature;BMP_pressure;BME280_temperature;BME280_humidity;BME280_pressure;Samples;Min_cycle;Max_cycle;Signal;HPM_P1;HPM_P2
2021/09/03 00:01:12;;;;;;;11.30;5.90;;;16.60;90.90;;;;;;5052709;28;20179;-81
2021/09/03 00:03:38;;;;;;;11.52;7.30;;;16.60;90.90;;;;;;5052803;28;20028;-80
2021/09/03 00:06:04;;;;;;;12.60;7.57;;;16.60;90.90;;;;;;5052922;28;20488;-80
2021/09/03 00:08:30;;;;;;;11.27;6.40;;;16.60;91.00;;;;;;5053084;28;20031;-80
2021/09/03 00:10:55;;;;;;;9.70;6.47;;;16.60;91.00;;;;;;5055386;28;20021;-81
2021/09/03 00:13:21;;;;;;;9.30;6.20;;;16.50;91.00;;;;;;5055071;28;20420;-80
2021/09/03 00:15:47;;;;;;;14.85;7.05;;;16.60;91.20;;;;;;5060788;28;20461;-81
2021/09/03 00:18:12;;;;;;;10.90;6.90;;;16.50;91.20;;;;;;5076445;28;20019;-81
2021/09/03 00:20:38;;;;;;;11.60;6.43;;;16.50;91.30;;;;;;5074864;28;20024;-80
2021/09/03 00:23:04;;;;;;;12.60;7.60;;;16.50;91.20;;;;;;5072413;28;20092;-81
2021/09/03 00:25:29;;;;;;;10.63;7.10;;;16.50;91.20;;;;;;5072423;28;20021;-81
2021/09/03 00:27:55;;;;;;;15.85;8.65;;;16.40;91.30;;;;;;5069526;28;20466;-81
2021/09/03 00:30:21;;;;;;;10.60;6.40;;;16.50;91.40;;;;;;5059532;28;20025;-80
2021/09/03 00:32:46;;;;;;;10.82;6.85;;;16.40;91.40;;;;;;5072955;28;20048;-80
2021/09/03 00:35:12;;;;;;;11.93;6.85;;;16.50;91.60;;;;;;5053617;28;20052;-81
2021/09/03 00:37:39;;;;;;;11.85;7.55;;;16.40;91.50;;;;;;5052313;28;20469;-80
2021/09/03 00:40:06;;;;;;;10.32;6.88;;;16.40;91.60;;;;;;5051852;28;20021;-81
2021/09/03 00:42:31;;;;;;;12.48;7.50;;;16.40;91.60;;;;;;5051592;28;20037;-81
2021/09/03 00:44:57;;;;;;;11.15;6.90;;;16.40;91.60;;;;;;5052781;28;20104;-80
2021/09/03 00:47:23;;;;;;;12.23;6.95;;;16.40;91.70;;;;;;5053214;28;20168;-81
2021/09/03 00:49:48;;;;;;;11.68;7.25;;;16.30;91.70;;;;;;5054929;28;20025;-80
2021/09/03 00:52:14;;;;;;;15.15;8.38;;;16.30;91.80;;;;;;5052979;28;20033;-81
2021/09/03 00:54:40;;;;;;;8.65;5.85;;;16.20;91.80;;;;;;5051585;28;20017;-81
2021/09/03 00:57:06;;;;;;;11.73;6.25;;;16.20;91.90;;;;;;5052639;28;20493;-81
2021/09/03 00:59:32;;;;;;;11.30;7.28;;;16.20;92.00;;;;;;5055098;28;20029;-81
2021/09/03 01:01:59;;;;;;;10.90;7.07;;;16.10;92.10;;;;;;5051592;28;20082;-81
2021/09/03 01:04:25;;;;;;;13.27;7.70;;;16.10;92.20;;;;;;5051408;28;20082;-81
2021/09/03 01:06:50;;;;;;;11.57;7.22;;;16.10;92.20;;;;;;5051494;28;20087;-81
2021/09/03 01:09:16;;;;;;;13.98;8.43;;;16.00;92.10;;;;;;5051544;28;20024;-81
2021/09/03 01:11:42;;;;;;;12.00;7.97;;;16.00;92.20;;;;;;5051306;28;20127;-78
2021/09/03 01:14:08;;;;;;;10.77;6.50;;;16.00;92.30;;;;;;5052552;28;20022;-80
2021/09/03 01:16:33;;;;;;;10.65;6.85;;;16.00;92.30;;;;;;5052302;28;20021;-80
2021/09/03 01:18:59;;;;;;;14.65;7.15;;;16.00;92.30;;;;;;5051414;28;20071;-80
2021/09/03 01:21:26;;;;;;;11.10;6.95;;;16.00;92.40;;;;;;5051546;28;20089;-80
2021/09/03 01:23:51;;;;;;;10.55;6.68;;;16.00;92.50;;;;;;5052118;28;20501;-81
2021/09/03 01:26:17;;;;;;;10.68;7.50;;;16.00;92.60;;;;;;5057674;28;20072;-80
2021/09/03 01:28:46;;;;;;;13.70;8.60;;;16.00;92.60;;;;;;5062760;28;20048;-79
2021/09/03 01:31:12;;;;;;;15.23;9.27;;;16.00;92.60;;;;;;5056065;28;20119;-80
2021/09/03 01:33:37;;;;;;;14.15;8.75;;;16.00;92.70;;;;;;5055169;28;20175;-80
2021/09/03 01:36:03;;;;;;;11.52;7.70;;;15.90;92.60;;;;;;5055201;28;20055;-80
2021/09/03 01:38:29;;;;;;;10.48;7.35;;;15.90;92.70;;;;;;5055246;28;20025;-82
2021/09/03 01:40:54;;;;;;;12.02;7.40;;;15.90;92.70;;;;;;5054967;28;20370;-82
2021/09/03 01:43:20;;;;;;;11.52;7.07;;;15.80;93.10;;;;;;5055118;28;20409;-82
2021/09/03 01:45:46;;;;;;;15.85;9.77;;;15.90;92.80;;;;;;5054793;28;20124;-82
2021/09/03 01:48:11;;;;;;;10.80;7.40;;;15.90;92.80;;;;;;5055316;28;20112;-83
2021/09/03 01:50:37;;;;;;;12.32;7.95;;;15.90;92.80;;;;;;5056430;28;20025;-83
2021/09/03 01:53:03;;;;;;;15.90;11.10;;;15.90;92.80;;;;;;5054898;28;20068;-83
2021/09/03 01:55:28;;;;;;;15.57;7.97;;;15.90;92.80;;;;;;5054915;28;20025;-83
2021/09/03 01:57:54;;;;;;;12.38;7.72;;;15.90;92.70;;;;;;5055260;28;20021;-84
2021/09/03 02:00:20;;;;;;;8.95;6.13;;;16.00;92.80;;;;;;5055488;28;20167;-83
2021/09/03 02:02:45;;;;;;;11.32;7.88;;;15.90;92.70;;;;;;5055253;28;20083;-83
2021/09/03 02:05:11;;;;;;;11.07;8.32;;;15.90;93.00;;;;;;5055844;28;20428;-83
2021/09/03 02:07:37;;;;;;;15.23;8.77;;;15.80;92.80;;;;;;5055403;28;20025;-84
2021/09/03 02:10:06;;;;;;;13.00;7.68;;;15.80;92.80;;;;;;5054917;28;20053;-84
2021/09/03 02:12:32;;;;;;;9.13;6.28;;;15.80;92.80;;;;;;5055316;28;20041;-83
2021/09/03 02:14:57;;;;;;;10.57;6.90;;;15.80;92.90;;;;;;5071992;28;20012;-84
2021/09/03 02:17:23;;;;;;;10.80;7.00;;;15.80;92.90;;;;;;5073699;28;20048;-84
2021/09/03 02:19:48;;;;;;;10.45;7.38;;;15.80;93.00;;;;;;5077124;28;20029;-84
2021/09/03 02:22:14;;;;;;;11.50;7.22;;;15.80;93.00;;;;;;5071515;28;20071;-84
2021/09/03 02:24:40;;;;;;;13.00;8.65;;;15.80;93.10;;;;;;5057460;28;20052;-84
2021/09/03 02:27:05;;;;;;;15.48;10.93;;;15.90;93.00;;;;;;5055218;28;20056;-84
2021/09/03 02:29:31;;;;;;;11.57;6.20;;;15.90;92.90;;;;;;5061721;28;20028;-84
2021/09/03 02:31:57;;;;;;;10.38;6.90;;;15.90;92.80;;;;;;5071842;28;20074;-83
2021/09/03 02:34:23;;;;;;;15.82;9.88;;;15.90;92.80;;;;;;5073738;28;20035;-84
2021/09/03 02:36:49;;;;;;;11.35;6.97;;;15.90;92.70;;;;;;5075439;28;20017;-84
2021/09/03 02:39:15;;;;;;;12.90;8.75;;;15.80;92.70;;;;;;5069224;28;20056;-84
2021/09/03 02:41:41;;;;;;;12.95;9.27;;;15.80;92.80;;;;;;5058506;28;20028;-84
2021/09/03 02:44:07;;;;;;;16.35;9.65;;;15.80;92.90;;;;;;5056948;28;20028;-84
2021/09/03 02:46:32;;;;;;;9.45;6.63;;;15.80;92.90;;;;;;5053973;28;20029;-84
2021/09/03 02:48:58;;;;;;;12.57;8.65;;;15.70;92.90;;;;;;5054001;28;20383;-84
2021/09/03 02:51:24;;;;;;;11.02;7.25;;;15.70;93.10;;;;;;5053435;28;20021;-84
2021/09/03 02:53:49;;;;;;;11.05;7.25;;;15.60;93.10;;;;;;5053600;28;20458;-84
2021/09/03 02:56:15;;;;;;;11.02;7.43;;;15.60;93.20;;;;;;5053815;28;20021;-84
2021/09/03 02:58:41;;;;;;;14.73;9.60;;;15.50;93.30;;;;;;5053730;28;20027;-83
2021/09/03 03:01:06;;;;;;;13.43;8.60;;;15.50;93.30;;;;;;5053617;28;20025;-82
2021/09/03 03:03:32;;;;;;;13.48;7.90;;;15.50;93.40;;;;;;5057751;28;20208;-83
2021/09/03 03:05:58;;;;;;;11.32;7.78;;;15.40;93.50;;;;;;5054549;28;20519;-84
2021/09/03 03:08:23;;;;;;;12.32;8.63;;;15.40;93.50;;;;;;5053931;28;20449;-84
2021/09/03 03:10:49;;;;;;;17.38;10.27;;;15.40;93.60;;;;;;5052716;28;20044;-83
2021/09/03 03:13:28;;;;;;;13.55;8.20;;;15.40;93.60;;;;;;5054457;28;20462;-83
2021/09/03 03:15:55;;;;;;;13.27;8.53;;;15.40;93.70;;;;;;5055011;28;20069;-83
2021/09/03 03:18:21;;;;;;;17.42;10.82;;;15.30;93.80;;;;;;5053902;28;20523;-82
2021/09/03 03:20:48;;;;;;;14.88;9.40;;;15.30;93.80;;;;;;5053583;28;20374;-83
2021/09/03 03:23:14;;;;;;;13.80;9.20;;;15.30;93.90;;;;;;5053263;28;20389;-82
2021/09/03 03:25:40;;;;;;;20.60;12.63;;;15.20;94.00;;;;;;5052991;28;20479;-83
2021/09/03 03:28:07;;;;;;;14.13;8.45;;;15.20;94.00;;;;;;5053007;28;20082;-83
2021/09/03 03:30:33;;;;;;;16.75;10.30;;;15.20;94.10;;;;;;5053182;28;20489;-82
2021/09/03 03:32:58;;;;;;;12.90;8.23;;;15.20;94.10;;;;;;5053717;28;20029;-82
2021/09/03 03:35:24;;;;;;;14.32;8.63;;;15.20;94.20;;;;;;5054243;28;20103;-82
2021/09/03 03:37:50;;;;;;;12.50;7.53;;;15.20;94.20;;;;;;5052866;28;20112;-83
2021/09/03 03:40:17;;;;;;;13.48;9.18;;;15.20;94.20;;;;;;5053250;28;20021;-83
2021/09/03 03:42:43;;;;;;;18.70;10.70;;;15.20;94.20;;;;;;5053417;28;20044;-83
2021/09/03 03:45:10;;;;;;;12.88;8.93;;;15.20;94.20;;;;;;5053743;28;20043;-83
2021/09/03 03:47:36;;;;;;;15.88;9.70;;;15.10;94.20;;;;;;5053182;28;20021;-83
2021/09/03 03:50:03;;;;;;;15.07;9.57;;;15.10;94.30;;;;;;5053417;28;20032;-83
2021/09/03 03:52:28;;;;;;;12.80;8.65;;;15.10;94.30;;;;;;5052871;28;20453;-84
2021/09/03 03:54:54;;;;;;;13.30;9.00;;;15.10;94.40;;;;;;5053361;28;20032;-83
2021/09/03 03:57:19;;;;;;;19.38;11.15;;;15.00;94.50;;;;;;5053964;28;20025;-83
2021/09/03 03:59:45;;;;;;;17.90;11.13;;;14.90;94.60;;;;;;5053035;28;20061;-83
2021/09/03 04:02:11;;;;;;;14.77;9.25;;;14.90;94.60;;;;;;5053009;28;20078;-82
2021/09/03 04:04:36;;;;;;;17.30;10.30;;;14.90;94.70;;;;;;5053885;28;20025;-81
2021/09/03 04:07:02;;;;;;;15.65;10.45;;;14.90;94.80;;;;;;5055923;28;20021;-82
2021/09/03 04:09:28;;;;;;;16.73;10.55;;;14.90;94.90;;;;;;5060494;28;20275;-83
2021/09/03 04:11:53;;;;;;;18.02;9.90;;;14.90;94.80;;;;;;5067857;28;20021;-83
2021/09/03 04:14:19;;;;;;;15.27;9.75;;;14.80;94.80;;;;;;5070195;28;20009;-82
2021/09/03 04:16:46;;;;;;;15.15;9.18;;;14.80;95.00;;;;;;5068091;28;20021;-82
2021/09/03 04:19:12;;;;;;;23.50;12.30;;;14.80;95.00;;;;;;5063055;28;20093;-82
2021/09/03 04:21:38;;;;;;;13.95;9.23;;;14.80;95.00;;;;;;5076603;28;20017;-83
2021/09/03 04:24:04;;;;;;;14.77;9.70;;;14.80;95.00;;;;;;5074441;28;20032;-83
2021/09/03 04:26:30;;;;;;;15.95;10.27;;;14.80;95.10;;;;;;5062857;28;20445;-82
2021/09/03 04:28:56;;;;;;;14.63;10.20;;;14.70;94.90;;;;;;5052684;28;20097;-83
2021/09/03 04:31:22;;;;;;;12.80;8.98;;;14.70;95.00;;;;;;5052788;28;20021;-82
2021/09/03 04:33:47;;;;;;;14.05;9.10;;;14.80;95.10;;;;;;5053394;28;20029;-83
2021/09/03 04:36:13;;;;;;;12.85;8.48;;;14.80;95.10;;;;;;5053261;28;20439;-82
2021/09/03 04:38:39;;;;;;;16.38;11.40;;;14.80;95.10;;;;;;5052300;28;20048;-81
2021/09/03 04:41:05;;;;;;;25.70;16.27;;;14.80;95.10;;;;;;5058573;28;20039;-82
2021/09/03 04:43:30;;;;;;;21.38;13.75;;;14.80;95.00;;;;;;5075210;28;20047;-82
2021/09/03 04:45:56;;;;;;;21.73;12.48;;;14.80;94.90;;;;;;5052924;28;20028;-83
2021/09/03 04:48:21;;;;;;;14.77;10.10;;;14.80;94.90;;;;;;5052055;28;20040;-83
2021/09/03 04:50:47;;;;;;;13.65;9.05;;;14.80;94.90;;;;;;5051611;28;20393;-82
2021/09/03 04:53:13;;;;;;;14.73;8.88;;;14.80;94.90;;;;;;5051883;28;20131;-82
2021/09/03 04:55:38;;;;;;;13.32;9.73;;;14.80;94.90;;;;;;5052089;28;20025;-82
2021/09/03 04:58:04;;;;;;;20.13;12.05;;;14.80;94.90;;;;;;5051827;28;20056;-82
2021/09/03 05:00:30;;;;;;;14.68;10.00;;;14.80;94.90;;;;;;5051789;28;20028;-82
2021/09/03 05:02:55;;;;;;;15.13;9.75;;;14.80;94.80;;;;;;5053731;28;20616;-83
2021/09/03 05:05:21;;;;;;;15.32;10.05;;;14.80;94.90;;;;;;5056036;28;20468;-83
2021/09/03 05:07:47;;;;;;;21.13;13.27;;;14.80;94.90;;;;;;5055679;28;20023;-83
2021/09/03 05:10:13;;;;;;;14.57;9.07;;;14.80;94.90;;;;;;5055700;28;20021;-83
2021/09/03 05:12:40;;;;;;;19.08;13.35;;;14.80;94.80;;;;;;5055404;28;20122;-83
2021/09/03 05:15:14;;;;;;;23.30;13.50;;;14.90;94.90;;;;;;5056107;28;20470;-82
2021/09/03 05:17:42;;;;;;;14.48;9.55;;;14.80;94.80;;;;;;5059178;28;20025;-82
2021/09/03 05:20:09;;;;;;;16.48;10.98;;;14.80;94.80;;;;;;5057471;28;20025;-82
2021/09/03 05:22:35;;;;;;;13.68;8.68;;;14.90;94.80;;;;;;5055394;28;20025;-81
2021/09/03 05:25:03;;;;;;;13.75;9.68;;;14.90;94.80;;;;;;5055569;28;20032;-82
2021/09/03 05:27:28;;;;;;;16.88;11.80;;;14.90;94.70;;;;;;5058890;28;20033;-81
2021/09/03 05:29:54;;;;;;;16.80;11.50;;;14.90;94.60;;;;;;5056359;28;20039;-82
2021/09/03 05:32:20;;;;;;;16.05;10.93;;;14.90;94.60;;;;;;5055481;28;20036;-82
2021/09/03 05:34:45;;;;;;;14.70;9.82;;;15.00;94.60;;;;;;5055287;28;20167;-83
2021/09/03 05:37:11;;;;;;;15.02;10.25;;;15.00;94.60;;;;;;5055598;28;20013;-84
2021/09/03 05:39:37;;;;;;;15.50;10.05;;;15.00;94.50;;;;;;5055633;28;20032;-83
2021/09/03 05:42:06;;;;;;;13.48;8.90;;;15.10;94.50;;;;;;5055827;28;20049;-84
2021/09/03 05:44:31;;;;;;;13.02;9.25;;;15.10;94.40;;;;;;5055559;28;20486;-83
2021/09/03 05:46:57;;;;;;;13.23;9.27;;;15.30;94.30;;;;;;5055315;28;20035;-83
2021/09/03 05:49:23;;;;;;;12.43;8.77;;;15.30;94.10;;;;;;5055517;28;20044;-82
2021/09/03 05:51:48;;;;;;;12.77;9.30;;;15.40;94.00;;;;;;5055007;28;20365;-83
2021/09/03 05:54:14;;;;;;;16.42;10.88;;;15.40;93.80;;;;;;5055770;28;20519;-83
2021/09/03 05:56:39;;;;;;;14.93;9.93;;;15.50;93.70;;;;;;5055637;28;20547;-83
2021/09/03 05:59:05;;;;;;;14.00;8.93;;;15.50;93.50;;;;;;5055793;28;20025;-84
2021/09/03 06:01:32;;;;;;;15.10;10.18;;;15.60;93.20;;;;;;5059508;28;20107;-84
2021/09/03 06:03:58;;;;;;;14.20;8.93;;;15.70;93.10;;;;;;5069198;28;20029;-84
2021/09/03 06:06:23;;;;;;;13.57;9.45;;;15.80;93.00;;;;;;5072852;28;20019;-82
2021/09/03 06:08:52;;;;;;;13.45;9.65;;;15.90;92.80;;;;;;5074364;28;20033;-83
2021/09/03 06:11:24;;;;;;;16.05;10.15;;;16.00;92.60;;;;;;5076235;28;20005;-84
2021/09/03 06:13:50;;;;;;;10.25;7.55;;;16.00;92.30;;;;;;5074498;28;20033;-83
2021/09/03 06:16:16;;;;;;;16.25;10.48;;;16.10;92.20;;;;;;5069018;28;20025;-82
2021/09/03 06:18:42;;;;;;;14.52;8.98;;;16.20;92.10;;;;;;5057250;28;20021;-83
2021/09/03 06:21:07;;;;;;;12.88;8.57;;;16.30;91.80;;;;;;5056796;28;20416;-83
2021/09/03 06:23:33;;;;;;;16.65;10.48;;;16.40;91.60;;;;;;5054910;28;20405;-83
2021/09/03 06:25:58;;;;;;;14.18;9.70;;;16.50;91.30;;;;;;5055809;28;20025;-84
2021/09/03 06:28:24;;;;;;;19.60;12.05;;;16.60;91.10;;;;;;5054647;28;20052;-83
2021/09/03 06:30:49;;;;;;;16.73;10.68;;;16.60;90.90;;;;;;5055236;28;20489;-84
2021/09/03 06:33:15;;;;;;;10.50;6.60;;;16.70;90.80;;;;;;5054725;28;20164;-83
2021/09/03 06:35:41;;;;;;;11.85;7.50;;;16.80;90.60;;;;;;5054534;28;20154;-84
2021/09/03 06:38:07;;;;;;;12.77;7.57;;;16.90;90.40;;;;;;5055125;28;20350;-85
2021/09/03 06:40:33;;;;;;;12.85;8.07;;;17.10;90.20;;;;;;5054924;28;20114;-84
2021/09/03 06:42:58;;;;;;;16.30;11.30;;;17.20;89.80;;;;;;5055210;28;20040;-84
2021/09/03 06:45:24;;;;;;;12.45;8.98;;;17.30;89.40;;;;;;5057228;28;20093;-83
2021/09/03 06:47:50;;;;;;;15.48;10.55;;;17.40;88.80;;;;;;5070104;28;20025;-82
2021/09/03 06:50:17;;;;;;;14.77;9.13;;;17.50;88.10;;;;;;5074834;28;20111;-83
2021/09/03 06:52:42;;;;;;;9.55;7.22;;;17.50;87.80;;;;;;5058973;28;20033;-84
2021/09/03 06:55:08;;;;;;;17.02;11.93;;;17.60;87.60;;;;;;5055158;28;20477;-83
2021/09/03 06:57:34;;;;;;;20.05;13.15;;;17.70;87.10;;;;;;5054522;28;20025;-83
2021/09/03 07:00:03;;;;;;;11.75;9.18;;;17.80;86.40;;;;;;5052853;28;20071;-83
2021/09/03 07:02:28;;;;;;;19.67;11.65;;;17.80;86.20;;;;;;5046246;28;20037;-85
2021/09/03 07:04:54;;;;;;;10.00;7.18;;;17.90;86.10;;;;;;5037565;28;20030;-83
2021/09/03 07:07:20;;;;;;;10.50;7.03;;;18.00;85.90;;;;;;5050934;28;20033;-84
2021/09/03 07:09:45;;;;;;;17.20;12.18;;;18.10;85.40;;;;;;5047619;28;20109;-84
2021/09/03 07:12:11;;;;;;;13.63;9.75;;;18.30;84.80;;;;;;5042064;28;20052;-83
2021/09/03 07:14:37;;;;;;;11.95;9.65;;;18.40;84.00;;;;;;5034109;28;20386;-85
2021/09/03 07:17:06;;;;;;;13.57;9.35;;;18.50;83.90;;;;;;5035911;28;20020;-84
2021/09/03 07:19:33;;;;;;;13.00;9.70;;;18.70;83.20;;;;;;5036176;28;20026;-84
2021/09/03 07:21:59;;;;;;;17.98;12.77;;;18.80;82.50;;;;;;5034530;28;20033;-84
2021/09/03 07:24:25;;;;;;;15.32;10.38;;;18.90;83.00;;;;;;5034253;28;20394;-84
2021/09/03 07:26:50;;;;;;;15.30;10.35;;;19.00;81.20;;;;;;5033259;28;20071;-83
2021/09/03 07:29:16;;;;;;;15.07;10.52;;;19.00;80.60;;;;;;5034542;28;20445;-83
2021/09/03 07:31:42;;;;;;;12.60;8.68;;;19.10;80.70;;;;;;5034768;28;20071;-84
2021/09/03 07:34:07;;;;;;;17.08;12.15;;;19.20;80.50;;;;;;5034214;28;20056;-84
2021/09/03 07:36:33;;;;;;;12.77;8.35;;;19.30;80.20;;;;;;5034776;28;20437;-83
2021/09/03 07:38:58;;;;;;;10.60;7.70;;;19.40;79.20;;;;;;5033932;28;20455;-84
2021/09/03 07:41:24;;;;;;;9.57;6.50;;;19.50;79.40;;;;;;5034926;28;20057;-84
2021/09/03 07:43:50;;;;;;;10.80;7.28;;;19.70;78.80;;;;;;5036928;28;20017;-84
2021/09/03 07:46:16;;;;;;;11.60;6.45;;;19.80;77.90;;;;;;5033958;28;20040;-83
2021/09/03 07:48:42;;;;;;;13.35;8.98;;;20.00;77.40;;;;;;5033892;28;20029;-84
2021/09/03 07:51:08;;;;;;;17.33;11.57;;;20.20;77.00;;;;;;5034087;28;20167;-83
2021/09/03 07:53:33;;;;;;;14.30;9.13;;;20.40;76.80;;;;;;5033480;28;20040;-84
2021/09/03 07:56:00;;;;;;;11.75;7.55;;;20.50;76.20;;;;;;5033965;28;20025;-83
2021/09/03 07:58:25;;;;;;;11.85;6.85;;;20.60;75.90;;;;;;5032894;28;20033;-83
2021/09/03 08:00:51;;;;;;;13.82;10.38;;;20.80;75.20;;;;;;5035501;28;20478;-83
2021/09/03 08:03:17;;;;;;;9.77;6.63;;;20.90;74.60;;;;;;5045672;28;20030;-83
2021/09/03 08:05:43;;;;;;;15.40;9.82;;;21.00;74.00;;;;;;5051655;28;20029;-83
2021/09/03 08:08:08;;;;;;;14.75;9.23;;;21.30;74.00;;;;;;5044077;28;20033;-83
2021/09/03 08:10:35;;;;;;;9.23;6.32;;;21.40;72.80;;;;;;5033051;28;20032;-84
2021/09/03 08:13:02;;;;;;;17.15;11.35;;;21.50;72.40;;;;;;5032345;28;20041;-83
2021/09/03 08:15:28;;;;;;;12.40;6.57;;;21.60;73.10;;;;;;5032266;28;20022;-80
2021/09/03 08:17:54;;;;;;;10.02;6.75;;;21.80;71.70;;;;;;5033182;28;20025;-80
2021/09/03 08:20:21;;;;;;;8.68;5.43;;;21.90;71.50;;;;;;5032310;28;20079;-81
2021/09/03 08:22:48;;;;;;;15.63;7.30;;;22.10;70.90;;;;;;5033051;28;20033;-81
2021/09/03 08:25:14;;;;;;;12.10;7.55;;;22.30;70.60;;;;;;5034030;28;20035;-81
2021/09/03 08:27:40;;;;;;;7.72;5.30;;;22.30;70.10;;;;;;5032835;28;20041;-80
2021/09/03 08:30:07;;;;;;;9.07;5.63;;;22.40;70.20;;;;;;5033295;28;20083;-81
2021/09/03 08:32:33;;;;;;;10.65;6.43;;;22.50;69.90;;;;;;5036384;28;20045;-81
2021/09/03 08:34:59;;;;;;;16.80;8.95;;;22.70;69.30;;;;;;5031381;28;20441;-80
2021/09/03 08:37:25;;;;;;;10.13;6.90;;;23.00;68.70;;;;;;5031243;28;20052;-79
2021/09/03 08:39:51;;;;;;;11.73;7.55;;;23.10;68.00;;;;;;5032307;28;20017;-81
2021/09/03 08:42:17;;;;;;;11.70;6.47;;;23.10;67.20;;;;;;5032225;28;20031;-80
2021/09/03 08:44:44;;;;;;;15.30;8.43;;;23.10;67.80;;;;;;5032368;28;20022;-79
2021/09/03 08:47:10;;;;;;;15.60;7.88;;;23.20;68.00;;;;;;5032962;28;20086;-79
2021/09/03 08:49:36;;;;;;;16.10;9.27;;;23.40;67.50;;;;;;5034009;28;20033;-81
2021/09/03 08:52:02;;;;;;;14.48;9.57;;;23.50;66.60;;;;;;5047146;28;20044;-78
2021/09/03 08:54:28;;;;;;;8.85;5.32;;;23.50;65.40;;;;;;5037366;28;20025;-80
2021/09/03 08:56:58;;;;;;;9.75;5.68;;;23.50;66.40;;;;;;5032538;28;20021;-80
2021/09/03 08:59:23;;;;;;;12.65;8.65;;;23.60;66.60;;;;;;5033638;28;20061;-80
2021/09/03 09:02:15;;;;;;;8.15;5.88;;;23.70;66.50;;;;;;5031919;28;20037;-79
2021/09/03 09:04:43;;;;;;;11.52;7.43;;;24.00;66.40;;;;;;5031733;28;20021;-79
2021/09/03 09:07:10;;;;;;;9.57;5.35;;;24.20;65.20;;;;;;5032301;28;20363;-79
2021/09/03 09:09:40;;;;;;;10.30;5.82;;;24.30;65.10;;;;;;5031082;28;20064;-79
2021/09/03 09:12:11;;;;;;;11.50;7.28;;;24.30;64.50;;;;;;5031025;28;20041;-81
2021/09/03 09:15:01;;;;;;;16.23;7.82;;;24.50;64.10;;;;;;5031161;28;20156;-80
2021/09/03 09:17:27;;;;;;;;;;;24.50;63.20;;;;;;5031408;28;20033;-80
2021/09/03 09:19:53;;;;;;;9.38;6.50;;;24.60;63.10;;;;;;5031035;28;19992;-80
2021/09/03 09:22:18;;;;;;;14.90;6.82;;;24.70;63.00;;;;;;5032089;28;20057;-80
2021/09/03 09:24:47;;;;;;;12.40;6.85;;;24.80;62.20;;;;;;5032827;28;20056;-80
2021/09/03 09:27:26;;;;;;;11.93;7.63;;;24.70;61.30;;;;;;5032850;28;20065;-80
2021/09/03 09:29:53;;;;;;;9.93;6.30;;;24.70;61.20;;;;;;5032461;28;20029;-81
2021/09/03 09:32:25;;;;;;;12.15;7.15;;;24.70;62.10;;;;;;5032209;28;20029;-81
2021/09/03 09:34:55;;;;;;;8.30;4.65;;;24.80;61.20;;;;;;5031127;28;20018;-81
2021/09/03 09:37:21;;;;;;;9.55;5.05;;;24.90;61.90;;;;;;5032031;28;20017;-80
2021/09/03 09:39:53;;;;;;;10.27;5.60;;;25.00;62.40;;;;;;5031937;28;20394;-80
2021/09/03 09:42:30;;;;;;;10.05;6.53;;;25.10;62.00;;;;;;5031953;28;20034;-80
2021/09/03 09:45:02;;;;;;;12.05;7.65;;;25.30;60.60;;;;;;5034354;28;20458;-80
2021/09/03 09:47:28;;;;;;;12.23;6.00;;;25.30;58.70;;;;;;5033642;28;20116;-79
2021/09/03 09:49:54;;;;;;;11.45;6.82;;;25.30;59.20;;;;;;5036402;28;20087;-80
2021/09/03 09:52:37;;;;;;;10.95;5.93;;;25.40;60.20;;;;;;5039870;28;20220;-79
2021/09/03 09:55:06;;;;;;;11.18;6.43;;;25.60;59.70;;;;;;5058607;28;20095;-80
2021/09/03 09:57:33;;;;;;;11.20;7.13;;;25.80;59.80;;;;;;5070047;28;20416;-80
2021/09/03 10:00:04;;;;;;;7.38;4.47;;;25.80;58.30;;;;;;5059117;28;20032;-79
2021/09/03 10:02:33;;;;;;;10.57;5.18;;;25.90;58.80;;;;;;5056526;28;20052;-80
2021/09/03 10:05:02;;;;;;;11.20;5.15;;;26.00;58.80;;;;;;5056059;28;20385;-80
2021/09/03 10:07:27;;;;;;;7.82;4.50;;;26.20;59.10;;;;;;5055543;28;20025;-80
2021/09/03 10:09:53;;;;;;;10.75;6.65;;;26.40;58.40;;;;;;5054974;28;20017;-79
2021/09/03 10:12:20;;;;;;;8.48;4.90;;;26.60;57.10;;;;;;5056643;28;20071;-80
2021/09/03 10:14:46;;;;;;;9.02;5.53;;;26.60;57.00;;;;;;5054844;28;20025;-79
2021/09/03 10:17:12;;;;;;;10.82;6.72;;;26.70;57.90;;;;;;5057102;28;20071;-79
2021/09/03 10:19:41;;;;;;;7.70;4.57;;;26.90;57.30;;;;;;5056313;28;20032;-79
2021/09/03 10:22:16;;;;;;;12.18;6.75;;;26.80;56.80;;;;;;5056031;28;20159;-80
2021/09/03 10:24:43;;;;;;;8.20;4.85;;;26.80;56.20;;;;;;5056157;28;20021;-80
2021/09/03 10:27:10;;;;;;;8.93;4.90;;;27.00;56.90;;;;;;5055475;28;20033;-80
2021/09/03 10:29:46;;;;;;;10.93;6.93;;;27.10;56.60;;;;;;5055423;28;20457;-79
2021/09/03 10:32:18;;;;;;;13.75;6.45;;;27.30;55.60;;;;;;5054763;28;20048;-80
2021/09/03 10:34:56;;;;;;;8.38;5.10;;;27.30;54.00;;;;;;5054633;28;20021;-80
2021/09/03 10:37:24;;;;;;;8.40;4.75;;;27.30;55.20;;;;;;5054699;28;20082;-79
2021/09/03 10:39:49;;;;;;;10.63;5.85;;;27.30;55.10;;;;;;5054380;28;20031;-80
2021/09/03 10:42:34;;;;;;;11.40;5.75;;;27.40;55.70;;;;;;5054793;28;20448;-79
2021/09/03 10:45:09;;;;;;;11.07;6.80;;;27.50;54.00;;;;;;5056287;28;20124;-80
2021/09/03 10:47:39;;;;;;;9.20;4.78;;;27.60;54.30;;;;;;5055519;28;20480;-80
2021/09/03 10:50:17;;;;;;;9.60;4.38;;;27.50;54.40;;;;;;5055710;28;20133;-80
2021/09/03 10:53:02;;;;;;;7.65;4.32;;;27.50;55.80;;;;;;5055559;28;20118;-79
2021/09/03 10:56:05;;;;;;;15.50;8.18;;;27.50;55.70;;;;;;5056495;28;20052;-80
2021/09/03 10:58:36;;;;;;;6.68;4.45;;;27.30;54.50;;;;;;5071404;28;20534;-79
2021/09/03 11:01:14;;;;;;;13.30;8.18;;;27.30;55.60;;;;;;5052973;28;20171;-79
2021/09/03 11:03:58;;;;;;;6.38;4.20;;;27.40;54.60;;;;;;5053962;28;20029;-79
2021/09/03 11:06:25;;;;;;;6.68;4.63;;;27.50;55.20;;;;;;5054099;28;20457;-79
2021/09/03 11:08:56;;;;;;;8.23;5.10;;;27.60;55.30;;;;;;5054601;28;20025;-79
2021/09/03 11:11:28;;;;;;;7.00;4.07;;;27.50;55.80;;;;;;5054535;28;20120;-79
2021/09/03 11:14:10;;;;;;;7.93;5.45;;;27.60;55.50;;;;;;5054239;28;20082;-79
2021/09/03 11:16:43;;;;;;;6.30;3.42;;;27.80;54.90;;;;;;5053922;28;20024;-80
2021/09/03 11:19:32;;;;;;;6.18;3.75;;;27.90;54.80;;;;;;5053827;28;20024;-79
2021/09/03 11:22:14;;;;;;;7.55;4.82;;;28.10;53.90;;;;;;5053944;28;20382;-79
2021/09/03 11:25:04;;;;;;;9.15;5.47;;;28.10;53.20;;;;;;5054232;28;20510;-79
2021/09/03 11:27:30;;;;;;;14.65;6.57;;;28.10;50.40;;;;;;5053589;28;20040;-80
2021/09/03 11:29:58;;;;;;;9.77;5.78;;;28.00;51.50;;;;;;5053645;28;20115;-80
2021/09/03 11:32:26;;;;;;;7.05;3.78;;;27.90;52.10;;;;;;5053997;28;20033;-79
2021/09/03 11:35:02;;;;;;;9.95;5.55;;;28.00;53.60;;;;;;5053855;28;20124;-80
2021/09/03 11:37:36;;;;;;;10.77;5.78;;;27.90;52.70;;;;;;5054628;28;20520;-79
2021/09/03 11:40:18;;;;;;;7.82;4.15;;;28.10;52.60;;;;;;5054674;28;20039;-80
2021/09/03 11:42:52;;;;;;;11.23;6.10;;;28.20;52.70;;;;;;5063789;28;20025;-79
2021/09/03 11:45:29;;;;;;;13.55;7.40;;;28.30;52.00;;;;;;5072686;28;20021;-80
2021/09/03 11:48:03;;;;;;;13.32;7.90;;;28.30;50.10;;;;;;5062839;28;20021;-79
2021/09/03 11:50:31;;;;;;;8.70;5.13;;;28.30;49.70;;;;;;5055726;28;20025;-79
2021/09/03 11:52:59;;;;;;;11.52;6.97;;;28.40;52.10;;;;;;5055241;28;20111;-80
2021/09/03 11:55:25;;;;;;;7.95;5.00;;;28.40;51.70;;;;;;5055523;28;20112;-79
2021/09/03 11:57:58;;;;;;;10.38;6.68;;;28.40;51.40;;;;;;5054455;28;20029;-79
2021/09/03 12:00:42;;;;;;;9.55;5.75;;;28.60;52.00;;;;;;5055324;28;20025;-79
2021/09/03 12:03:13;;;;;;;7.15;4.30;;;28.90;51.20;;;;;;5052808;28;20091;-80
2021/09/03 12:05:42;;;;;;;6.20;4.20;;;29.00;51.60;;;;;;5053882;28;20021;-80
2021/09/03 12:08:16;;;;;;;8.83;4.63;;;29.10;51.90;;;;;;5053578;28;20473;-79
2021/09/03 12:10:54;;;;;;;7.82;4.18;;;29.30;51.30;;;;;;5052766;28;20028;-79
2021/09/03 12:13:25;;;;;;;8.60;5.80;;;29.40;51.30;;;;;;5054276;28;20040;-78
2021/09/03 12:16:12;;;;;;;6.38;4.10;;;29.40;51.00;;;;;;5055179;28;20021;-79
2021/09/03 12:18:43;;;;;;;12.10;6.15;;;29.50;50.90;;;;;;5054147;28;20025;-78
2021/09/03 12:21:32;;;;;;;10.45;5.88;;;29.70;49.80;;;;;;5054090;28;20397;-78
2021/09/03 12:24:04;;;;;;;8.23;4.50;;;29.80;49.10;;;;;;5053401;28;20029;-79
2021/09/03 12:26:47;;;;;;;8.90;5.03;;;29.90;49.00;;;;;;5053046;28;20017;-78
2021/09/03 12:29:13;;;;;;;10.88;6.28;;;29.90;50.30;;;;;;5053226;28;20106;-80
2021/09/03 12:31:39;;;;;;;12.27;6.50;;;29.90;49.60;;;;;;5053092;28;20075;-79
2021/09/03 12:34:09;;;;;;;6.80;4.68;;;29.80;48.80;;;;;;5052091;28;20437;-78
2021/09/03 12:36:37;;;;;;;9.20;5.05;;;29.80;49.00;;;;;;5052539;28;20461;-78
2021/09/03 12:39:08;;;;;;;6.60;3.92;;;30.10;49.80;;;;;;5054606;28;20378;-80
2021/09/03 12:41:40;;;;;;;9.02;5.38;;;30.20;49.80;;;;;;5052833;28;20104;-78